CheckWX is a tool to help pilots better visualize weather data.  It is not intended as a substitute for an official pre-flight weather briefing.

13:43:18 UTC

KFHU METAR
Sierra Vista Municipal-Libby AAF Airport
Fort Huachuca Sierra Vista, Arizona, USA
Current

45 mins ago

KFHU 201258Z AUTO 19005KT 8SM CLR 20/15 A3012 RMK AO2 SLP121 T01970147 $
Observed
Jul-20 @ 12:58 UTC
Wind
  • 190° at 5 KTS
Visibility
8 SM
Flight Rules
VFR
Cloud Levels
  • Clear skies
Temperature
20°C / 68°F
Dewpoint
15°C / 59°F
Humidity
73%
Altimeter
30.12" Hg
Pressure
1020.02 hPa
Previous

56 mins ago

KFHU 201247Z AUTO 17004KT 9SM CLR 20/15 A3012 RMK AO2 SLP121
Observed
Jul-20 @ 12:47 UTC
Wind
  • 170° at 4 KTS
Visibility
9 SM
Flight Rules
VFR
Cloud Levels
  • Clear skies
Temperature
20°C / 68°F
Dewpoint
15°C / 59°F
Humidity
73%
Altimeter
30.12" Hg
Pressure
1020.02 hPa
Previous

2 hours ago

KFHU 201158Z AUTO 29006KT 10SM CLR 21/14 A3010 RMK AO2 SLP112 7//// T02050138 10269 20200 53001 $
Observed
Jul-20 @ 11:58 UTC
Wind
  • 290° at 6 KTS
Visibility
10 SM
Flight Rules
VFR
Cloud Levels
  • Clear skies
Temperature
21°C / 70°F
Dewpoint
14°C / 57°F
Humidity
64%
Altimeter
30.1" Hg
Pressure
1019.32 hPa